Time;durP1;ratioP1;P1;durP2;ratioP2;P2;SDS_P1;SDS_P2;PMS_P1;PMS_P2;Temp;Humidity;BMP_temperature;BMP_pressure;BME280_temperature;BME280_humidity;BME280_pressure;Samples;Min_cycle;Max_cycle;Signal;HPM_P1;HPM_P2
2023/12/09 00:00:43;;;;;;;15.70;14.80;;;9.10;37.90;;;;;;5042135;28;20192;-52
2023/12/09 00:03:09;;;;;;;16.63;15.43;;;9.20;37.40;;;;;;5050166;28;20187;-53
2023/12/09 00:05:34;;;;;;;17.70;16.50;;;9.20;37.20;;;;;;5038887;28;20192;-52
2023/12/09 00:08:00;;;;;;;17.17;16.07;;;9.20;37.10;;;;;;5035182;28;20185;-51
2023/12/09 00:10:26;;;;;;;18.03;16.83;;;9.30;37.00;;;;;;5050196;28;20195;-54
2023/12/09 00:12:52;;;;;;;16.20;15.20;;;9.20;37.10;;;;;;5060103;28;20233;-52
2023/12/09 00:15:17;;;;;;;16.00;15.00;;;9.20;36.80;;;;;;5051075;28;20419;-51
2023/12/09 00:17:43;;;;;;;17.20;16.00;;;9.00;37.40;;;;;;5041918;28;20527;-50
2023/12/09 00:20:09;;;;;;;16.43;15.23;;;8.90;38.40;;;;;;5050325;28;20249;-44
2023/12/09 00:22:35;;;;;;;16.83;15.70;;;8.70;38.50;;;;;;5050365;28;20226;-49
2023/12/09 00:25:00;;;;;;;15.70;14.70;;;8.60;39.50;;;;;;5044328;28;20419;-48
2023/12/09 00:27:26;;;;;;;16.80;15.70;;;8.50;39.40;;;;;;5050079;28;20183;-48
2023/12/09 00:29:51;;;;;;;16.87;15.87;;;8.60;40.40;;;;;;5051377;28;20631;-54
2023/12/09 00:32:17;;;;;;;15.50;14.57;;;8.60;39.90;;;;;;5046401;28;20679;-53
2023/12/09 00:34:43;;;;;;;17.20;15.87;;;8.70;40.10;;;;;;5042255;28;20654;-50
2023/12/09 00:37:08;;;;;;;16.43;15.40;;;8.70;38.70;;;;;;5049900;28;20183;-55
2023/12/09 00:39:34;;;;;;;16.97;15.77;;;8.80;39.70;;;;;;5049716;28;20207;-54
2023/12/09 00:41:59;;;;;;;16.83;15.33;;;9.00;39.50;;;;;;5044263;28;20263;-54
2023/12/09 00:44:25;;;;;;;15.27;14.33;;;9.10;38.10;;;;;;5050142;28;20172;-45
2023/12/09 00:46:51;;;;;;;17.17;16.07;;;9.20;38.00;;;;;;5042642;28;20183;-45
2023/12/09 00:49:17;;;;;;;15.73;14.73;;;9.20;37.40;;;;;;5049838;28;20183;-45
2023/12/09 00:51:42;;;;;;;15.33;14.40;;;9.30;37.60;;;;;;5049914;28;20256;-47
2023/12/09 00:54:08;;;;;;;16.37;15.20;;;9.30;36.90;;;;;;5049977;28;20465;-50
2023/12/09 00:56:33;;;;;;;16.10;15.10;;;9.30;37.10;;;;;;5049647;28;20211;-49
2023/12/09 00:58:59;;;;;;;16.20;15.13;;;9.50;36.80;;;;;;5043679;28;20238;-47
2023/12/09 01:01:24;;;;;;;16.50;15.50;;;9.50;35.50;;;;;;5049849;28;20271;-48
2023/12/09 01:03:50;;;;;;;15.53;14.53;;;9.60;35.70;;;;;;5042365;28;20233;-49
2023/12/09 01:06:16;;;;;;;16.33;15.27;;;9.70;35.50;;;;;;5049886;28;20276;-46
2023/12/09 01:08:42;;;;;;;15.17;14.27;;;9.70;35.30;;;;;;5049825;28;20225;-53
2023/12/09 01:11:08;;;;;;;15.13;14.13;;;9.80;34.80;;;;;;5049399;28;20822;-56
2023/12/09 01:13:33;;;;;;;15.97;14.93;;;9.90;34.30;;;;;;5049651;28;20774;-55
2023/12/09 01:15:59;;;;;;;15.60;14.70;;;9.90;33.90;;;;;;5043638;28;20186;-55
2023/12/09 01:18:24;;;;;;;14.73;13.83;;;9.80;34.20;;;;;;5053123;28;20636;-47
2023/12/09 01:20:50;;;;;;;16.73;15.47;;;9.70;34.70;;;;;;5046482;28;20176;-47
2023/12/09 01:23:16;;;;;;;15.33;14.50;;;9.50;35.20;;;;;;5037094;28;20191;-46
2023/12/09 01:25:41;;;;;;;17.00;15.83;;;9.30;35.70;;;;;;5053381;28;20176;-44
2023/12/09 01:28:07;;;;;;;14.97;14.00;;;9.20;36.30;;;;;;5053448;28;20543;-50
2023/12/09 01:30:33;;;;;;;14.73;13.83;;;9.20;37.00;;;;;;5050913;28;20194;-49
2023/12/09 01:32:59;;;;;;;15.10;14.17;;;9.30;36.70;;;;;;5046839;28;20457;-45
2023/12/09 01:35:24;;;;;;;14.10;13.10;;;9.40;36.70;;;;;;5053184;28;20191;-49
2023/12/09 01:37:50;;;;;;;13.23;12.53;;;9.50;36.20;;;;;;5046019;28;20172;-44
2023/12/09 01:40:15;;;;;;;13.63;12.83;;;9.60;36.30;;;;;;5052654;28;20644;-44
2023/12/09 01:42:42;;;;;;;14.47;13.60;;;9.70;36.00;;;;;;5053214;28;20647;-50
2023/12/09 01:45:08;;;;;;;14.00;13.10;;;9.70;35.50;;;;;;5048260;28;20279;-48
2023/12/09 01:47:35;;;;;;;14.63;13.63;;;9.80;34.90;;;;;;5052894;28;20950;-46
2023/12/09 01:50:03;;;;;;;15.40;14.40;;;9.90;34.30;;;;;;5047342;28;20952;-47
2023/12/09 01:52:30;;;;;;;15.47;14.30;;;10.00;33.20;;;;;;5053122;28;20564;-52
2023/12/09 01:54:56;;;;;;;14.47;13.57;;;10.00;33.00;;;;;;5046466;28;20450;-47
2023/12/09 01:57:22;;;;;;;13.73;12.93;;;10.00;32.50;;;;;;5052919;28;20457;-50
2023/12/09 01:59:48;;;;;;;14.43;13.53;;;10.00;32.30;;;;;;5045256;28;20525;-50
2023/12/09 02:02:13;;;;;;;14.10;13.20;;;10.10;31.60;;;;;;5052772;28;20628;-48
2023/12/09 02:04:40;;;;;;;14.73;13.63;;;10.00;31.90;;;;;;5053025;28;20184;-51
2023/12/09 02:10:28;;;;;;;15.40;14.37;;;9.60;34.70;;;;;;5053147;28;21013;-49
2023/12/09 02:13:04;;;;;;;15.90;14.87;;;9.60;35.30;;;;;;5045902;28;20553;-50
2023/12/09 02:15:42;;;;;;;15.23;14.30;;;9.60;35.20;;;;;;5053818;28;20225;-48
2023/12/09 02:18:08;;;;;;;15.43;14.43;;;9.70;35.20;;;;;;5047808;28;20415;-49
2023/12/09 02:20:34;;;;;;;13.90;13.20;;;9.80;34.60;;;;;;5052373;28;20552;-52
2023/12/09 02:23:12;;;;;;;14.60;13.60;;;9.90;34.20;;;;;;5046995;28;20501;-53
2023/12/09 02:25:39;;;;;;;15.43;14.30;;;10.00;33.00;;;;;;5052055;28;20207;-55
2023/12/09 02:28:22;;;;;;;14.13;13.23;;;10.00;32.70;;;;;;5047134;28;20792;-56
2023/12/09 02:30:51;;;;;;;14.93;13.93;;;10.00;32.50;;;;;;5052022;28;20468;-55
2023/12/09 02:33:18;;;;;;;13.50;12.50;;;10.00;32.70;;;;;;5052234;28;20808;-53
2023/12/09 02:35:45;;;;;;;14.00;13.13;;;9.90;33.00;;;;;;5036344;28;20415;-52
2023/12/09 02:38:11;;;;;;;14.90;13.70;;;9.60;35.20;;;;;;5051951;28;20476;-55
2023/12/09 02:40:38;;;;;;;13.67;12.80;;;9.60;35.40;;;;;;5052062;28;20414;-52
2023/12/09 02:43:05;;;;;;;14.00;13.00;;;9.60;35.70;;;;;;5053546;28;20511;-53
2023/12/09 02:45:31;;;;;;;12.43;11.80;;;9.70;35.70;;;;;;5049973;28;20922;-49
2023/12/09 02:47:56;;;;;;;12.47;11.47;;;9.80;35.40;;;;;;5045922;28;20424;-47
2023/12/09 02:50:22;;;;;;;12.10;11.50;;;9.90;35.10;;;;;;5051909;28;20179;-45
2023/12/09 02:52:48;;;;;;;11.80;11.03;;;10.00;33.70;;;;;;5044361;28;20212;-44
2023/12/09 02:55:13;;;;;;;11.80;11.10;;;10.00;33.10;;;;;;5051971;28;20186;-49
2023/12/09 02:57:39;;;;;;;12.70;11.87;;;10.10;32.60;;;;;;5051692;28;20176;-48
2023/12/09 03:00:06;;;;;;;11.07;10.30;;;10.10;32.10;;;;;;5046534;28;20206;-48
2023/12/09 03:02:32;;;;;;;10.93;10.27;;;10.20;31.70;;;;;;5051426;28;20668;-47
2023/12/09 03:04:58;;;;;;;10.17;9.63;;;10.20;31.70;;;;;;5045952;28;20445;-50
2023/12/09 03:07:24;;;;;;;11.10;10.50;;;10.20;31.70;;;;;;5051661;28;20229;-48
2023/12/09 03:09:49;;;;;;;11.87;11.23;;;10.20;31.70;;;;;;5044174;28;20469;-47
2023/12/09 03:12:15;;;;;;;10.97;10.40;;;10.20;31.70;;;;;;5051503;28;20939;-46
2023/12/09 03:14:41;;;;;;;10.60;10.10;;;10.30;31.70;;;;;;5051568;28;20172;-51
2023/12/09 03:17:07;;;;;;;12.10;11.40;;;10.20;31.70;;;;;;5051226;28;20410;-47
2023/12/09 03:19:32;;;;;;;10.87;10.17;;;10.20;31.70;;;;;;5051235;28;20186;-50
2023/12/09 03:21:58;;;;;;;10.80;10.20;;;10.20;31.70;;;;;;5045532;28;20302;-47
2023/12/09 03:24:25;;;;;;;12.20;11.03;;;10.30;31.70;;;;;;5051164;28;20179;-50
2023/12/09 03:26:51;;;;;;;11.77;11.10;;;10.20;31.70;;;;;;5044174;28;20472;-48
2023/12/09 03:29:17;;;;;;;11.50;10.87;;;10.20;31.70;;;;;;5051307;28;20938;-48
2023/12/09 03:31:43;;;;;;;10.90;10.30;;;10.20;31.70;;;;;;5034830;28;20828;-47
2023/12/09 03:34:09;;;;;;;12.07;11.30;;;10.20;31.70;;;;;;5051150;28;20461;-44
2023/12/09 03:36:34;;;;;;;10.67;10.17;;;10.20;31.70;;;;;;5050915;28;20183;-48
2023/12/09 03:39:00;;;;;;;11.90;11.10;;;10.20;31.70;;;;;;5044671;28;20187;-47
2023/12/09 03:41:26;;;;;;;11.97;11.20;;;10.30;31.70;;;;;;5050708;28;20640;-44
2023/12/09 03:43:51;;;;;;;11.73;10.97;;;10.20;31.70;;;;;;5044093;28;20183;-45
2023/12/09 03:46:17;;;;;;;12.50;11.40;;;10.30;31.70;;;;;;5050750;28;20267;-46
2023/12/09 03:48:43;;;;;;;10.87;10.03;;;10.20;31.70;;;;;;5042755;28;20183;-44
2023/12/09 03:51:08;;;;;;;11.20;10.50;;;10.20;31.70;;;;;;5050917;28;20219;-45
2023/12/09 03:53:34;;;;;;;11.77;11.07;;;10.20;31.70;;;;;;5050387;28;20972;-49
2023/12/09 03:55:59;;;;;;;10.70;10.10;;;10.20;31.70;;;;;;5045034;28;20182;-51
2023/12/09 03:58:25;;;;;;;11.53;10.73;;;10.20;31.70;;;;;;5049900;28;20172;-48
2023/12/09 04:00:51;;;;;;;10.60;10.10;;;10.20;31.70;;;;;;5043206;28;20230;-46
2023/12/09 04:03:16;;;;;;;12.10;11.30;;;10.20;31.70;;;;;;5050781;28;20627;-50
2023/12/09 04:05:42;;;;;;;11.20;10.57;;;10.20;31.70;;;;;;5042358;28;20191;-51
2023/12/09 04:08:08;;;;;;;10.80;10.23;;;10.20;31.70;;;;;;5050386;28;20274;-50
2023/12/09 04:10:34;;;;;;;10.90;10.13;;;10.10;31.60;;;;;;5050266;28;20211;-48
2023/12/09 04:12:59;;;;;;;10.63;10.03;;;10.10;31.60;;;;;;5044449;28;20882;-47
2023/12/09 04:15:27;;;;;;;11.13;10.33;;;10.10;31.60;;;;;;5050300;28;20242;-56
2023/12/09 04:17:53;;;;;;;11.93;11.00;;;10.10;31.60;;;;;;5043378;28;20172;-55
2023/12/09 04:20:19;;;;;;;10.97;10.13;;;10.10;31.60;;;;;;5068370;28;20410;-56
2023/12/09 04:22:44;;;;;;;11.80;11.10;;;10.10;31.40;;;;;;5053370;28;20417;-53
2023/12/09 04:25:10;;;;;;;11.37;10.57;;;10.20;30.80;;;;;;5053735;28;20591;-54
2023/12/09 04:27:36;;;;;;;12.10;11.30;;;10.20;30.50;;;;;;5053377;28;20236;-52
2023/12/09 04:30:04;;;;;;;10.97;10.27;;;10.30;30.00;;;;;;5053246;28;20365;-56
2023/12/09 04:32:30;;;;;;;11.10;10.40;;;10.40;29.80;;;;;;5070209;28;20199;-53
2023/12/09 04:34:59;;;;;;;11.70;11.00;;;10.40;29.60;;;;;;5070192;28;20414;-55
2023/12/09 04:37:25;;;;;;;12.03;11.10;;;10.30;29.50;;;;;;5053169;28;20475;-54
2023/12/09 04:39:51;;;;;;;11.00;10.40;;;10.20;29.70;;;;;;5053227;28;20508;-55
2023/12/09 04:42:18;;;;;;;12.03;11.30;;;10.20;30.10;;;;;;5071329;28;20433;-55
2023/12/09 04:44:44;;;;;;;10.73;10.03;;;10.30;30.00;;;;;;5069913;28;20414;-57
2023/12/09 04:47:10;;;;;;;11.53;10.73;;;10.30;29.80;;;;;;5052197;28;20433;-56
2023/12/09 04:49:35;;;;;;;10.40;9.60;;;10.30;29.80;;;;;;5066744;28;20267;-56
2023/12/09 04:52:01;;;;;;;10.80;10.10;;;10.20;29.90;;;;;;5043568;28;20426;-55
2023/12/09 04:54:27;;;;;;;11.37;10.47;;;10.10;30.30;;;;;;5066619;28;20184;-57
2023/12/09 04:56:52;;;;;;;11.93;10.83;;;10.10;30.70;;;;;;5042563;28;20175;-56
2023/12/09 04:59:18;;;;;;;11.30;10.33;;;10.00;30.30;;;;;;5049361;28;20202;-54
2023/12/09 05:01:44;;;;;;;10.67;10.07;;;9.90;32.10;;;;;;5041477;28;20184;-58
2023/12/09 05:04:10;;;;;;;9.87;9.47;;;9.70;32.20;;;;;;5066321;28;20176;-49
2023/12/09 05:06:36;;;;;;;11.80;10.90;;;9.50;33.40;;;;;;5065733;28;20944;-52
2023/12/09 05:09:02;;;;;;;11.40;10.60;;;9.40;33.70;;;;;;5060450;28;20179;-45
2023/12/09 05:11:28;;;;;;;9.73;9.03;;;9.30;34.30;;;;;;5066214;28;20183;-50
2023/12/09 05:13:54;;;;;;;10.10;9.60;;;9.20;34.90;;;;;;5042762;28;20973;-53
2023/12/09 05:16:19;;;;;;;10.07;9.67;;;9.20;35.20;;;;;;5066906;28;20168;-57
2023/12/09 05:18:45;;;;;;;9.67;9.17;;;9.20;35.50;;;;;;5042242;28;20184;-55
2023/12/09 05:21:12;;;;;;;11.53;10.70;;;9.10;35.40;;;;;;5066290;28;20176;-56
2023/12/09 05:23:37;;;;;;;11.00;10.40;;;9.10;35.90;;;;;;5066551;28;20513;-57
2023/12/09 05:26:03;;;;;;;11.23;10.37;;;8.90;36.20;;;;;;5061051;28;20505;-57
2023/12/09 05:28:30;;;;;;;11.40;10.80;;;9.00;36.80;;;;;;5066185;28;20249;-55
2023/12/09 05:30:56;;;;;;;11.37;10.67;;;8.90;36.30;;;;;;5059999;28;20528;-60
2023/12/09 05:33:22;;;;;;;11.37;10.67;;;8.90;36.90;;;;;;5066489;28;21035;-54
2023/12/09 05:35:48;;;;;;;11.23;10.53;;;8.70;37.30;;;;;;5058917;28;20434;-52
2023/12/09 05:38:13;;;;;;;11.63;10.93;;;8.70;38.30;;;;;;5051629;28;20506;-52
2023/12/09 05:40:39;;;;;;;10.97;9.90;;;8.60;38.30;;;;;;5065926;28;20751;-56
2023/12/09 05:43:05;;;;;;;11.00;10.30;;;8.60;38.20;;;;;;5044344;28;20841;-53
2023/12/09 05:45:31;;;;;;;10.53;9.93;;;8.60;38.00;;;;;;5065871;28;20176;-53
2023/12/09 05:47:57;;;;;;;11.73;10.83;;;8.50;38.60;;;;;;5043644;28;20433;-55
2023/12/09 05:50:22;;;;;;;10.80;10.20;;;8.60;38.90;;;;;;5066758;28;20184;-54
2023/12/09 05:52:48;;;;;;;10.40;9.70;;;8.50;38.40;;;;;;5042389;28;20460;-52
2023/12/09 05:55:17;;;;;;;9.73;9.17;;;8.50;38.70;;;;;;5066841;28;20175;-52
2023/12/09 05:57:43;;;;;;;10.13;9.53;;;8.50;38.60;;;;;;5066397;28;20176;-48
2023/12/09 06:00:10;;;;;;;9.90;9.40;;;8.40;39.00;;;;;;5066094;28;20446;-46
2023/12/09 06:02:36;;;;;;;10.73;10.13;;;8.30;39.10;;;;;;5067037;28;20457;-49
2023/12/09 06:05:03;;;;;;;10.00;9.50;;;8.30;39.40;;;;;;5048016;28;20450;-49
2023/12/09 06:07:28;;;;;;;9.70;9.27;;;8.40;38.80;;;;;;5069718;28;20184;-47
2023/12/09 06:09:54;;;;;;;11.00;10.00;;;8.40;38.80;;;;;;5046730;28;20922;-48
2023/12/09 06:12:20;;;;;;;12.13;11.03;;;8.40;38.90;;;;;;5070142;28;20585;-48
2023/12/09 06:14:46;;;;;;;10.43;9.73;;;8.40;38.30;;;;;;5062163;28;20415;-51
2023/12/09 06:17:11;;;;;;;10.60;9.90;;;8.30;38.60;;;;;;5069967;28;20230;-50
2023/12/09 06:19:37;;;;;;;9.70;9.20;;;8.30;38.90;;;;;;5070015;28;20290;-45
2023/12/09 06:22:02;;;;;;;10.20;9.50;;;8.20;38.90;;;;;;5047568;28;20733;-50
2023/12/09 06:24:28;;;;;;;10.70;10.10;;;8.20;39.20;;;;;;5069912;28;20234;-44
2023/12/09 06:26:54;;;;;;;11.50;10.60;;;8.10;39.20;;;;;;5046383;28;20211;-52
2023/12/09 06:29:19;;;;;;;11.13;10.57;;;8.10;39.50;;;;;;5069437;28;20179;-44
2023/12/09 06:31:45;;;;;;;11.33;10.30;;;8.10;39.70;;;;;;5045146;28;20176;-53
2023/12/09 06:34:10;;;;;;;11.17;10.23;;;8.20;39.70;;;;;;5068548;28;20242;-45
2023/12/09 06:36:36;;;;;;;10.57;9.77;;;8.20;38.90;;;;;;5052569;28;20195;-50
2023/12/09 06:39:02;;;;;;;10.47;9.97;;;8.30;38.70;;;;;;5046922;28;20325;-48
2023/12/09 06:41:27;;;;;;;10.20;9.63;;;8.30;38.50;;;;;;5069190;28;20217;-47
2023/12/09 06:43:53;;;;;;;10.50;9.90;;;8.50;37.90;;;;;;5045493;28;20176;-49
2023/12/09 06:46:18;;;;;;;10.50;9.90;;;8.60;38.00;;;;;;5069453;28;20176;-52
2023/12/09 06:48:45;;;;;;;11.70;11.03;;;8.70;37.00;;;;;;5044880;28;20317;-48
2023/12/09 06:51:17;;;;;;;10.40;9.80;;;8.60;36.60;;;;;;5051706;28;20180;-49
2023/12/09 06:53:43;;;;;;;11.40;10.57;;;8.60;37.00;;;;;;5068963;28;20454;-46
2023/12/09 06:56:17;;;;;;;10.43;9.73;;;8.70;36.50;;;;;;5052260;28;20424;-48
2023/12/09 06:58:43;;;;;;;10.00;9.50;;;8.70;36.80;;;;;;5034773;28;20442;-47
2023/12/09 07:01:08;;;;;;;12.03;10.87;;;8.80;36.00;;;;;;5052223;28;20980;-48
2023/12/09 07:03:37;;;;;;;9.80;9.30;;;8.80;35.70;;;;;;5051150;28;20187;-48
2023/12/09 07:06:04;;;;;;;10.33;9.70;;;8.80;35.90;;;;;;5042929;28;20545;-49
2023/12/09 07:08:30;;;;;;;10.27;9.67;;;8.80;35.40;;;;;;5032709;28;20928;-46
2023/12/09 07:10:59;;;;;;;10.47;9.87;;;8.90;34.90;;;;;;5029105;28;20408;-49
2023/12/09 07:13:25;;;;;;;10.47;9.97;;;8.90;34.60;;;;;;5068361;28;20714;-54
2023/12/09 07:15:50;;;;;;;9.93;9.13;;;8.90;34.50;;;;;;5043670;28;20447;-49
2023/12/09 07:18:16;;;;;;;10.27;9.60;;;8.80;34.90;;;;;;5068568;28;20255;-47
2023/12/09 07:20:41;;;;;;;10.57;9.90;;;8.70;34.90;;;;;;5068253;28;20207;-46
2023/12/09 07:23:07;;;;;;;10.00;9.50;;;8.60;35.50;;;;;;5068518;28;20180;-44
2023/12/09 07:25:33;;;;;;;9.73;9.00;;;8.60;35.90;;;;;;5068479;28;20241;-46
2023/12/09 07:27:58;;;;;;;10.20;9.70;;;8.50;36.00;;;;;;5045598;28;20180;-44
2023/12/09 07:30:24;;;;;;;10.37;9.77;;;8.50;36.30;;;;;;5067899;28;20546;-46
2023/12/09 07:32:49;;;;;;;10.50;9.87;;;8.50;36.00;;;;;;5044029;28;20204;-45
2023/12/09 07:35:16;;;;;;;10.27;9.67;;;8.40;36.20;;;;;;5067580;28;20275;-44
2023/12/09 07:37:43;;;;;;;10.37;9.80;;;8.50;35.80;;;;;;5051416;28;20180;-48
2023/12/09 07:40:11;;;;;;;9.97;9.30;;;8.50;35.90;;;;;;5050935;28;20422;-51
2023/12/09 07:42:37;;;;;;;10.33;9.83;;;8.40;35.30;;;;;;5050751;28;20422;-46
2023/12/09 07:45:04;;;;;;;9.20;8.80;;;8.50;35.50;;;;;;5035254;28;20411;-45
2023/12/09 07:47:30;;;;;;;10.53;9.90;;;8.40;34.60;;;;;;5029579;28;20953;-47
2023/12/09 07:49:55;;;;;;;10.27;9.67;;;8.40;35.10;;;;;;5031906;28;20415;-48
2023/12/09 07:52:21;;;;;;;10.70;9.90;;;8.30;34.80;;;;;;5028323;28;20187;-47
2023/12/09 07:54:47;;;;;;;9.13;8.63;;;8.30;35.50;;;;;;5023599;28;20722;-45
2023/12/09 07:57:14;;;;;;;10.60;9.90;;;8.30;35.60;;;;;;5042894;28;20184;-48
2023/12/09 07:59:39;;;;;;;9.63;9.20;;;8.40;35.30;;;;;;5067152;28;20525;-47
2023/12/09 08:02:05;;;;;;;10.10;9.53;;;8.40;35.40;;;;;;5045168;28;20482;-44
2023/12/09 08:04:31;;;;;;;10.03;9.33;;;8.40;34.70;;;;;;5050329;28;20664;-50
2023/12/09 08:06:56;;;;;;;9.90;9.43;;;8.40;34.50;;;;;;5044171;28;20254;-46
2023/12/09 08:09:22;;;;;;;9.40;8.90;;;8.40;34.50;;;;;;5053551;28;20242;-45
2023/12/09 08:11:48;;;;;;;9.33;8.63;;;8.40;34.20;;;;;;5042872;28;20225;-46
2023/12/09 08:14:13;;;;;;;9.10;8.70;;;8.40;35.30;;;;;;5067192;28;20683;-48
2023/12/09 08:16:39;;;;;;;9.07;8.57;;;8.50;34.50;;;;;;5067164;28;20579;-45
2023/12/09 08:19:05;;;;;;;9.60;9.00;;;8.30;34.30;;;;;;5045056;28;20176;-46
2023/12/09 08:21:37;;;;;;;9.77;9.27;;;8.30;35.40;;;;;;5067072;28;20423;-48
2023/12/09 08:24:03;;;;;;;9.63;9.23;;;8.20;35.10;;;;;;5045174;28;20172;-47
2023/12/09 08:26:29;;;;;;;10.23;9.43;;;8.10;35.30;;;;;;5066432;28;20468;-48
2023/12/09 08:28:55;;;;;;;9.50;9.10;;;8.20;35.60;;;;;;5043748;28;20415;-46
2023/12/09 08:31:21;;;;;;;10.70;10.00;;;8.20;35.50;;;;;;5066383;28;20640;-51
2023/12/09 08:33:46;;;;;;;9.30;8.80;;;8.20;35.40;;;;;;5042267;28;20461;-56
2023/12/09 08:36:13;;;;;;;9.50;9.00;;;8.20;35.30;;;;;;5066761;28;20229;-57
2023/12/09 08:38:39;;;;;;;9.47;8.97;;;8.10;35.50;;;;;;5067007;28;20183;-57
2023/12/09 08:41:05;;;;;;;9.57;9.07;;;8.10;35.60;;;;;;5044589;28;20415;-57
2023/12/09 08:43:30;;;;;;;10.67;10.07;;;8.10;36.00;;;;;;5050092;28;20237;-57
2023/12/09 08:45:56;;;;;;;9.50;9.03;;;8.10;36.00;;;;;;5043522;28;20266;-56
2023/12/09 08:48:22;;;;;;;9.27;8.77;;;8.10;35.90;;;;;;5066370;28;20178;-57
2023/12/09 08:50:48;;;;;;;9.97;9.40;;;8.10;36.30;;;;;;5042249;28;20180;-57
2023/12/09 08:53:14;;;;;;;9.83;9.13;;;8.20;36.00;;;;;;5049878;28;21005;-51
2023/12/09 08:55:39;;;;;;;9.50;8.80;;;8.30;36.10;;;;;;5049806;28;20640;-52
2023/12/09 08:58:05;;;;;;;9.80;9.20;;;8.30;35.50;;;;;;5045363;28;20183;-49
2023/12/09 09:00:30;;;;;;;10.43;9.60;;;8.40;35.60;;;;;;5066455;28;20219;-45
2023/12/09 09:02:56;;;;;;;9.50;8.90;;;8.40;35.30;;;;;;5043379;28;20212;-55
2023/12/09 09:05:25;;;;;;;9.10;8.70;;;8.50;34.90;;;;;;5067209;28;20563;-49
2023/12/09 09:07:51;;;;;;;9.40;8.80;;;8.60;34.50;;;;;;5059748;28;20179;-54
2023/12/09 09:10:18;;;;;;;9.63;9.03;;;8.60;34.00;;;;;;5067191;28;20997;-52
2023/12/09 09:12:44;;;;;;;10.00;9.33;;;8.70;34.20;;;;;;5042475;28;20699;-54
2023/12/09 09:15:10;;;;;;;9.40;8.80;;;8.70;34.00;;;;;;5067167;28;20433;-53
2023/12/09 09:17:35;;;;;;;8.90;8.40;;;8.70;33.30;;;;;;5066823;28;20182;-53
2023/12/09 09:20:01;;;;;;;9.70;9.20;;;8.70;33.40;;;;;;5044646;28;20202;-56
2023/12/09 09:22:27;;;;;;;9.93;9.33;;;8.60;33.80;;;;;;5067274;28;20180;-52
2023/12/09 09:24:52;;;;;;;9.23;8.63;;;8.60;33.90;;;;;;5043945;28;20414;-54
2023/12/09 09:27:18;;;;;;;8.90;8.40;;;8.50;33.80;;;;;;5066689;28;20263;-56
2023/12/09 09:29:45;;;;;;;9.30;8.70;;;8.50;34.10;;;;;;5057840;28;20190;-47
2023/12/09 09:32:10;;;;;;;9.23;8.63;;;8.50;34.40;;;;;;5040436;28;20497;-46
2023/12/09 09:34:36;;;;;;;9.23;8.77;;;8.60;34.00;;;;;;5039538;28;20519;-44
2023/12/09 09:37:02;;;;;;;10.17;9.50;;;8.70;33.60;;;;;;5049751;28;20255;-48
2023/12/09 09:39:27;;;;;;;8.80;8.30;;;8.60;33.40;;;;;;5044173;28;20298;-46
2023/12/09 09:41:58;;;;;;;8.77;8.10;;;8.50;33.30;;;;;;5036660;28;20185;-50
2023/12/09 09:44:27;;;;;;;8.60;8.20;;;8.40;33.90;;;;;;5047928;28;20179;-45
2023/12/09 09:46:57;;;;;;;9.73;9.23;;;8.40;34.10;;;;;;5046747;28;20414;-44
2023/12/09 09:49:25;;;;;;;9.10;8.50;;;8.50;33.90;;;;;;5052950;28;20429;-47
2023/12/09 09:51:56;;;;;;;8.60;8.20;;;8.40;33.80;;;;;;5043217;28;20461;-44
2023/12/09 09:54:26;;;;;;;8.77;8.17;;;8.30;34.00;;;;;;5043754;28;20512;-49
2023/12/09 09:56:53;;;;;;;9.20;8.40;;;8.20;34.80;;;;;;5051927;28;20968;-48
2023/12/09 09:59:20;;;;;;;8.30;7.90;;;8.30;34.90;;;;;;5053487;28;20434;-46
2023/12/09 10:01:46;;;;;;;8.40;7.80;;;8.30;34.40;;;;;;5045044;28;20434;-47
2023/12/09 10:04:12;;;;;;;8.70;8.20;;;8.30;35.00;;;;;;5052251;28;20423;-44
2023/12/09 10:06:39;;;;;;;8.40;8.00;;;8.40;34.30;;;;;;5053367;28;20414;-46
2023/12/09 10:09:05;;;;;;;8.33;7.90;;;8.30;34.10;;;;;;5046857;28;20752;-51
2023/12/09 10:11:31;;;;;;;8.80;8.20;;;8.40;34.70;;;;;;5052010;28;20407;-44
2023/12/09 10:13:57;;;;;;;8.10;7.70;;;8.40;34.70;;;;;;5047247;28;20214;-54
2023/12/09 10:16:23;;;;;;;7.77;7.40;;;8.40;33.90;;;;;;5053218;28;20422;-56
2023/12/09 10:18:48;;;;;;;8.37;7.87;;;8.50;33.90;;;;;;5046009;28;20602;-56
2023/12/09 10:21:15;;;;;;;9.10;8.60;;;8.50;33.70;;;;;;5053289;28;20510;-56
2023/12/09 10:23:41;;;;;;;9.77;9.13;;;8.60;34.00;;;;;;5053304;28;20172;-55
2023/12/09 10:26:08;;;;;;;8.93;8.53;;;8.60;33.80;;;;;;5052831;28;20426;-53
2023/12/09 10:28:34;;;;;;;8.90;8.10;;;8.70;33.50;;;;;;5052706;28;20655;-54
2023/12/09 10:31:01;;;;;;;9.20;8.40;;;8.70;32.90;;;;;;5047447;28;20514;-55
2023/12/09 10:33:32;;;;;;;9.07;8.57;;;8.70;33.30;;;;;;5069710;28;20458;-57
2023/12/09 10:35:58;;;;;;;8.90;8.37;;;8.80;32.40;;;;;;5046966;28;20407;-56
2023/12/09 10:38:24;;;;;;;9.20;8.80;;;8.80;32.60;;;;;;5069754;28;20411;-61
2023/12/09 10:40:50;;;;;;;8.83;8.33;;;8.70;32.90;;;;;;5054176;28;20412;-53
2023/12/09 10:43:16;;;;;;;9.17;8.67;;;8.80;32.10;;;;;;5054236;28;20474;-55
2023/12/09 10:45:43;;;;;;;9.10;8.60;;;8.70;32.80;;;;;;5044410;28;20417;-56
2023/12/09 10:48:08;;;;;;;8.63;8.00;;;8.80;32.80;;;;;;5054875;28;20430;-55
2023/12/09 10:50:37;;;;;;;8.53;8.13;;;8.70;32.90;;;;;;5068793;28;20417;-54
2023/12/09 10:53:03;;;;;;;7.83;7.53;;;8.80;32.20;;;;;;5046979;28;20224;-54
2023/12/09 10:55:28;;;;;;;8.17;7.87;;;8.80;32.30;;;;;;5069347;28;20810;-51
2023/12/09 10:57:55;;;;;;;8.90;8.30;;;8.80;32.40;;;;;;5045527;28;20655;-53
2023/12/09 11:00:22;;;;;;;8.60;7.80;;;8.90;32.50;;;;;;5053706;28;20192;-55
2023/12/09 11:02:49;;;;;;;8.90;8.30;;;8.90;32.30;;;;;;5044776;28;20942;-56
2023/12/09 11:05:15;;;;;;;8.70;8.30;;;8.90;31.50;;;;;;5069024;28;20907;-46
2023/12/09 11:07:42;;;;;;;8.87;8.37;;;9.00;32.30;;;;;;5059656;28;20517;-48
2023/12/09 11:10:09;;;;;;;9.30;8.70;;;9.10;31.70;;;;;;5052235;28;20419;-47
2023/12/09 11:12:38;;;;;;;8.13;7.73;;;9.10;31.70;;;;;;5052003;28;20485;-48
2023/12/09 11:15:13;;;;;;;8.53;8.23;;;9.00;33.00;;;;;;5046891;28;20418;-48
2023/12/09 11:17:40;;;;;;;9.73;9.13;;;9.00;32.30;;;;;;5068752;28;20978;-44
2023/12/09 11:20:16;;;;;;;9.00;8.30;;;9.00;32.40;;;;;;5047457;28;20780;-55
2023/12/09 11:22:43;;;;;;;8.80;8.40;;;9.00;31.90;;;;;;5052228;28;20922;-53
2023/12/09 11:25:18;;;;;;;9.53;9.13;;;9.10;32.30;;;;;;5052115;28;20430;-56
2023/12/09 11:27:44;;;;;;;9.77;9.27;;;9.20;32.30;;;;;;5068471;28;20418;-56
2023/12/09 11:30:28;;;;;;;8.37;7.97;;;9.30;32.10;;;;;;5052004;28;20579;-55
2023/12/09 11:32:55;;;;;;;8.60;8.10;;;9.40;31.90;;;;;;5068537;28;20458;-54
2023/12/09 11:35:21;;;;;;;9.80;9.30;;;9.40;31.90;;;;;;5052057;28;20947;-57
2023/12/09 11:37:49;;;;;;;9.40;8.80;;;9.40;32.00;;;;;;5044111;28;20495;-56
2023/12/09 11:40:15;;;;;;;9.40;8.90;;;9.50;32.00;;;;;;5051853;28;20417;-56
2023/12/09 11:42:41;;;;;;;8.03;7.63;;;9.60;31.80;;;;;;5053122;28;20411;-55
2023/12/09 11:45:08;;;;;;;8.87;8.47;;;9.50;31.80;;;;;;5047153;28;20423;-57
2023/12/09 11:47:36;;;;;;;9.30;8.83;;;9.40;32.00;;;;;;5051432;28;20437;-51
2023/12/09 11:50:02;;;;;;;8.90;8.40;;;9.40;31.90;;;;;;5046174;28;20557;-54
2023/12/09 11:52:29;;;;;;;8.67;8.20;;;9.40;31.90;;;;;;5051552;28;20796;-55
2023/12/09 11:55:04;;;;;;;8.37;8.00;;;9.40;31.90;;;;;;5045296;28;20848;-55
2023/12/09 11:57:33;;;;;;;8.80;8.40;;;9.50;32.10;;;;;;5050202;28;20829;-56
2023/12/09 11:59:59;;;;;;;9.53;9.07;;;9.50;32.00;;;;;;5045013;28;20437;-57
2023/12/09 12:02:24;;;;;;;9.97;9.57;;;9.50;32.00;;;;;;5067767;28;20494;-55
2023/12/09 12:04:50;;;;;;;10.50;9.90;;;9.60;31.70;;;;;;5043398;28;20648;-52
2023/12/09 12:07:16;;;;;;;9.33;8.87;;;9.60;31.70;;;;;;5045063;28;20187;-56
2023/12/09 12:09:41;;;;;;;10.17;9.77;;;9.60;31.70;;;;;;5043110;28;20604;-46
2023/12/09 12:12:07;;;;;;;10.50;9.90;;;9.60;31.40;;;;;;5051191;28;20184;-48
2023/12/09 12:14:35;;;;;;;12.30;11.30;;;9.40;31.90;;;;;;5051030;28;20466;-46
2023/12/09 12:17:01;;;;;;;11.20;10.43;;;9.40;32.00;;;;;;5045308;28;20472;-44
2023/12/09 12:19:28;;;;;;;9.90;9.40;;;9.40;31.90;;;;;;5051162;28;20418;-49
2023/12/09 12:21:55;;;;;;;8.93;8.53;;;9.50;32.00;;;;;;5044371;28;20415;-48
2023/12/09 12:24:20;;;;;;;9.67;9.07;;;9.50;32.10;;;;;;5050947;28;20423;-46
2023/12/09 12:26:47;;;;;;;10.30;9.90;;;9.50;32.00;;;;;;5043092;28;20833;-45
2023/12/09 12:29:19;;;;;;;10.03;9.50;;;9.60;31.80;;;;;;5050682;28;20180;-54
2023/12/09 12:31:49;;;;;;;11.97;11.33;;;9.70;31.80;;;;;;5051981;28;20488;-53
2023/12/09 12:34:19;;;;;;;10.33;9.87;;;9.70;30.60;;;;;;5047253;28;20540;-57
2023/12/09 12:36:46;;;;;;;10.00;9.50;;;9.60;30.90;;;;;;5050575;28;20472;-55
2023/12/09 12:39:12;;;;;;;9.13;8.43;;;9.60;31.00;;;;;;5050690;28;20410;-53
2023/12/09 12:41:41;;;;;;;9.40;8.80;;;9.70;30.80;;;;;;5050678;28;20417;-54